createdAt,value
2022-10-13T00:00:56.490Z,1013.5
2022-10-13T00:01:59.852Z,1013.5
2022-10-13T00:03:02.742Z,1013.5
2022-10-13T00:04:05.906Z,1013.5
2022-10-13T00:05:09.050Z,1013.5
2022-10-13T00:06:11.787Z,1013.5
2022-10-13T00:07:14.566Z,1013.5
2022-10-13T00:08:17.918Z,1013.5
2022-10-13T00:09:20.728Z,1013.5
2022-10-13T00:10:25.091Z,1013.5
2022-10-13T00:11:28.163Z,1013.5
2022-10-13T00:12:31.421Z,1013.5
2022-10-13T00:13:35.175Z,1013.4
2022-10-13T00:14:38.483Z,1013.4
2022-10-13T00:15:41.015Z,1013.4
2022-10-13T00:16:43.730Z,1013.5
2022-10-13T00:17:47.105Z,1013.4
2022-10-13T00:18:49.916Z,1013.4
2022-10-13T00:19:52.982Z,1013.4
2022-10-13T00:20:55.698Z,1013.3
2022-10-13T00:21:58.417Z,1013.3
2022-10-13T00:23:01.403Z,1013.3
2022-10-13T00:24:04.207Z,1013.3
2022-10-13T00:25:07.107Z,1013.3
2022-10-13T00:26:10.917Z,1013.4
2022-10-13T00:27:14.087Z,1013.3
2022-10-13T00:28:16.911Z,1013.3
2022-10-13T00:29:20.638Z,1013.3
2022-10-13T00:30:23.425Z,1013.2
2022-10-13T00:31:26.230Z,1013.2
2022-10-13T00:32:29.728Z,1013.2
2022-10-13T00:33:33.454Z,1013.2
2022-10-13T00:34:36.056Z,1013.2
2022-10-13T00:35:38.947Z,1013.2
2022-10-13T00:36:42.118Z,1013.2
2022-10-13T00:37:44.543Z,1013.2
2022-10-13T00:38:47.400Z,1013.1
2022-10-13T00:39:50.839Z,1013.2
2022-10-13T00:40:54.226Z,1013.2
2022-10-13T00:41:58.600Z,1013.2
2022-10-13T00:43:01.813Z,1013.2
2022-10-13T00:44:04.533Z,1013.2
2022-10-13T00:45:07.044Z,1013.2
2022-10-13T00:46:10.430Z,1013.1
2022-10-13T00:47:13.899Z,1013.1
2022-10-13T00:48:17.059Z,1013.1
2022-10-13T00:49:20.145Z,1013.1
2022-10-13T00:50:23.660Z,1013.1
2022-10-13T00:51:26.809Z,1013.2
2022-10-13T00:52:30.310Z,1013.1
2022-10-13T00:53:32.820Z,1013.1
2022-10-13T00:54:36.254Z,1013.1
2022-10-13T00:55:39.496Z,1013.1
2022-10-13T00:56:42.437Z,1013.1
2022-10-13T00:57:46.609Z,1013.1
2022-10-13T00:58:49.411Z,1013.1
2022-10-13T00:59:52.678Z,1013.1
2022-10-13T01:00:55.529Z,1013
2022-10-13T01:01:58.859Z,1013
2022-10-13T01:03:01.457Z,1013
2022-10-13T01:04:04.071Z,1013
2022-10-13T01:05:06.956Z,1013
2022-10-13T01:06:09.102Z,1013
2022-10-13T01:07:12.187Z,1013
2022-10-13T01:08:14.802Z,1013
2022-10-13T01:09:18.138Z,1013
2022-10-13T01:10:21.035Z,1012.9
2022-10-13T01:11:22.636Z,1013
2022-10-13T01:12:25.824Z,1013
2022-10-13T01:13:29.720Z,1012.9
2022-10-13T01:14:33.180Z,1012.9
2022-10-13T01:15:36.440Z,1012.9
2022-10-13T01:16:39.502Z,1012.9
2022-10-13T01:17:43.053Z,1012.9
2022-10-13T01:18:45.760Z,1012.9
2022-10-13T01:19:48.629Z,1012.9
2022-10-13T01:20:51.893Z,1012.9
2022-10-13T01:21:55.286Z,1012.9
2022-10-13T01:22:58.826Z,1012.9
2022-10-13T01:24:01.627Z,1012.9
2022-10-13T01:25:04.438Z,1012.9
2022-10-13T01:26:07.396Z,1012.9
2022-10-13T01:27:10.759Z,1012.9
2022-10-13T01:28:14.078Z,1012.9
2022-10-13T01:29:18.416Z,1012.9
2022-10-13T01:30:21.280Z,1012.8
2022-10-13T01:31:24.807Z,1012.8
2022-10-13T01:32:28.257Z,1012.8
2022-10-13T01:33:31.342Z,1012.8
2022-10-13T01:34:34.858Z,1012.8
2022-10-13T01:35:38.010Z,1012.8
2022-10-13T01:36:41.505Z,1012.8
2022-10-13T01:37:44.930Z,1012.8
2022-10-13T01:38:47.548Z,1012.7
2022-10-13T01:39:49.846Z,1012.7
2022-10-13T01:40:52.631Z,1012.8
2022-10-13T01:41:56.085Z,1012.7
2022-10-13T01:42:58.598Z,1012.7
2022-10-13T01:44:01.734Z,1012.7
2022-10-13T01:45:05.934Z,1012.7
2022-10-13T01:46:08.811Z,1012.7
2022-10-13T01:47:11.336Z,1012.7
2022-10-13T01:48:14.559Z,1012.6
2022-10-13T01:49:18.020Z,1012.6
2022-10-13T01:50:20.921Z,1012.6
2022-10-13T01:51:23.721Z,1012.6
2022-10-13T01:52:27.445Z,1012.6
2022-10-13T01:53:30.327Z,1012.6
2022-10-13T01:54:33.399Z,1012.6
2022-10-13T01:55:36.916Z,1012.6
2022-10-13T01:56:39.645Z,1012.6
2022-10-13T01:57:42.725Z,1012.6
2022-10-13T01:58:45.510Z,1012.6
2022-10-13T01:59:48.429Z,1012.6
2022-10-13T02:00:52.607Z,1012.6
2022-10-13T02:01:56.030Z,1012.6
2022-10-13T02:02:58.834Z,1012.6
2022-10-13T02:04:02.455Z,1012.6
2022-10-13T02:05:05.618Z,1012.6
2022-10-13T02:06:09.070Z,1012.6
2022-10-13T02:07:12.249Z,1012.6
2022-10-13T02:08:15.590Z,1012.6
2022-10-13T02:09:19.045Z,1012.6
2022-10-13T02:10:21.826Z,1012.6
2022-10-13T02:11:24.883Z,1012.6
2022-10-13T02:12:27.953Z,1012.6
2022-10-13T02:13:31.148Z,1012.5
2022-10-13T02:14:34.357Z,1012.5
2022-10-13T02:15:37.942Z,1012.4
2022-10-13T02:16:42.389Z,1012.3
2022-10-13T02:17:45.739Z,1012.3
2022-10-13T02:18:48.593Z,1012.3
2022-10-13T02:19:51.383Z,1012.4
2022-10-13T02:20:55.390Z,1012.4
2022-10-13T02:21:58.454Z,1012.3
2022-10-13T02:23:01.565Z,1012.4
2022-10-13T02:24:04.632Z,1012.3
2022-10-13T02:25:07.711Z,1012.3
2022-10-13T02:26:10.501Z,1012.3
2022-10-13T02:27:13.285Z,1012.3
2022-10-13T02:28:16.304Z,1012.3
2022-10-13T02:29:19.495Z,1012.3
2022-10-13T02:30:22.646Z,1012.3
2022-10-13T02:31:26.337Z,1012.2
2022-10-13T02:32:30.135Z,1012.2
2022-10-13T02:33:33.567Z,1012.2
2022-10-13T02:34:37.060Z,1012.2
2022-10-13T02:35:39.696Z,1012.2
2022-10-13T02:36:42.595Z,1012.2
2022-10-13T02:37:45.569Z,1012.3
2022-10-13T02:38:48.381Z,1012.2
2022-10-13T02:39:51.098Z,1012.2
2022-10-13T02:40:54.096Z,1012.2
2022-10-13T02:41:56.980Z,1012.3
2022-10-13T02:43:00.362Z,1012.3
2022-10-13T02:44:02.532Z,1012.3
2022-10-13T02:45:05.044Z,1012.3
2022-10-13T02:46:07.575Z,1012.3
2022-10-13T02:47:10.486Z,1012.3
2022-10-13T02:48:14.298Z,1012.3
2022-10-13T02:49:17.487Z,1012.2
2022-10-13T02:50:20.342Z,1012.2
2022-10-13T02:51:23.333Z,1012.2
2022-10-13T02:52:26.042Z,1012.2
2022-10-13T02:53:28.784Z,1012.1
2022-10-13T02:54:32.131Z,1012.1
2022-10-13T02:55:34.640Z,1012.2
2022-10-13T02:56:37.723Z,1012.1
2022-10-13T02:57:40.963Z,1012.2
2022-10-13T02:58:43.301Z,1012.2
2022-10-13T02:59:46.189Z,1012.1
2022-10-13T03:00:48.765Z,1012.1
2022-10-13T03:01:51.507Z,1012.1
2022-10-13T03:02:55.044Z,1012.1
2022-10-13T03:03:59.155Z,1012.1
2022-10-13T03:05:01.749Z,1012.1
2022-10-13T03:06:04.812Z,1012.1
2022-10-13T03:07:07.614Z,1012.1
2022-10-13T03:08:10.681Z,1012.1
2022-10-13T03:09:13.856Z,1012.1
2022-10-13T03:10:17.204Z,1012.1
2022-10-13T03:11:20.062Z,1012.1
2022-10-13T03:12:23.492Z,1012.1
2022-10-13T03:13:26.406Z,1012.1
2022-10-13T03:14:28.929Z,1012
2022-10-13T03:15:32.083Z,1012.1
2022-10-13T03:16:35.213Z,1012.1
2022-10-13T03:17:38.108Z,1012.1
2022-10-13T03:18:41.863Z,1012.1
2022-10-13T03:19:45.753Z,1012
2022-10-13T03:20:48.343Z,1012
2022-10-13T03:21:50.862Z,1012.1
2022-10-13T03:22:54.396Z,1012
2022-10-13T03:23:57.462Z,1012
2022-10-13T03:25:00.410Z,1012
2022-10-13T03:26:02.587Z,1012
2022-10-13T03:27:05.929Z,1012
2022-10-13T03:28:08.810Z,1012
2022-10-13T03:29:11.600Z,1012
2022-10-13T03:30:15.109Z,1012
2022-10-13T03:31:17.965Z,1012
2022-10-13T03:32:22.139Z,1012
2022-10-13T03:33:25.811Z,1012
2022-10-13T03:34:29.005Z,1012
2022-10-13T03:35:32.921Z,1012
2022-10-13T03:36:36.060Z,1012
2022-10-13T03:37:39.239Z,1012.1
2022-10-13T03:38:42.344Z,1012.1
2022-10-13T03:39:45.205Z,1012.1
2022-10-13T03:40:47.649Z,1012
2022-10-13T03:41:50.988Z,1012
2022-10-13T03:42:54.240Z,1012
2022-10-13T03:43:57.694Z,1012
2022-10-13T03:45:00.004Z,1012.1
2022-10-13T03:46:02.440Z,1012.1
2022-10-13T03:47:05.494Z,1012.1
2022-10-13T03:48:08.199Z,1012.1
2022-10-13T03:49:11.062Z,1012.1
2022-10-13T03:50:14.533Z,1012.1
2022-10-13T03:51:18.597Z,1012.1
2022-10-13T03:52:22.403Z,1012.1
2022-10-13T03:53:25.093Z,1012.1
2022-10-13T03:54:27.582Z,1012.1
2022-10-13T03:55:29.620Z,1012.1
2022-10-13T03:56:32.140Z,1012.1
2022-10-13T03:57:34.656Z,1012.1
2022-10-13T03:58:37.728Z,1012
2022-10-13T03:59:40.676Z,1012
2022-10-13T04:00:43.480Z,1012
2022-10-13T04:01:47.001Z,1012
2022-10-13T04:02:50.367Z,1012
2022-10-13T04:03:53.447Z,1012
2022-10-13T04:04:56.677Z,1012
2022-10-13T04:05:59.823Z,1012
2022-10-13T04:07:03.993Z,1012
2022-10-13T04:08:07.057Z,1012
2022-10-13T04:09:10.420Z,1012
2022-10-13T04:10:13.562Z,1012.1
2022-10-13T04:11:16.730Z,1012
2022-10-13T04:12:21.524Z,1012
2022-10-13T04:13:26.380Z,1012
2022-10-13T04:14:29.524Z,1012
2022-10-13T04:15:32.586Z,1012
2022-10-13T04:16:35.035Z,1012
2022-10-13T04:17:38.753Z,1012
2022-10-13T04:18:45.172Z,1011.9
2022-10-13T04:19:47.851Z,1012
2022-10-13T04:20:50.836Z,1011.9
2022-10-13T04:21:54.075Z,1011.9
2022-10-13T04:22:58.431Z,1011.9
2022-10-13T04:24:01.578Z,1011.9
2022-10-13T04:25:04.426Z,1011.9
2022-10-13T04:26:06.940Z,1011.9
2022-10-13T04:27:09.503Z,1011.9
2022-10-13T04:28:12.912Z,1011.9
2022-10-13T04:29:16.980Z,1011.8
2022-10-13T04:30:19.878Z,1011.8
2022-10-13T04:31:22.954Z,1011.8
2022-10-13T04:32:25.540Z,1011.8
2022-10-13T04:33:28.384Z,1011.8
2022-10-13T04:34:31.838Z,1011.7
2022-10-13T04:35:35.572Z,1011.7
2022-10-13T04:36:38.284Z,1011.8
2022-10-13T04:37:45.615Z,1011.8
2022-10-13T04:38:50.001Z,1011.8
2022-10-13T04:39:53.449Z,1011.8
2022-10-13T04:40:56.849Z,1011.8
2022-10-13T04:41:59.637Z,1011.8
2022-10-13T04:43:03.020Z,1011.8
2022-10-13T04:44:06.199Z,1011.8
2022-10-13T04:45:08.902Z,1011.8
2022-10-13T04:46:11.987Z,1011.7
2022-10-13T04:47:14.518Z,1011.8
2022-10-13T04:48:17.023Z,1011.8
2022-10-13T04:49:18.986Z,1011.7
2022-10-13T04:50:22.705Z,1011.7
2022-10-13T04:51:25.728Z,1011.8
2022-10-13T04:52:28.835Z,1011.7
2022-10-13T04:53:31.598Z,1011.7
2022-10-13T04:54:35.677Z,1011.6
2022-10-13T04:55:38.111Z,1011.6
2022-10-13T04:56:41.198Z,1011.7
2022-10-13T04:57:44.267Z,1011.7
2022-10-13T04:58:47.706Z,1011.6
2022-10-13T04:59:50.424Z,1011.7
2022-10-13T05:00:53.463Z,1011.7
2022-10-13T05:01:56.577Z,1011.6
2022-10-13T05:03:00.032Z,1011.6
2022-10-13T05:04:02.645Z,1011.6
2022-10-13T05:05:06.093Z,1011.6
2022-10-13T05:06:08.986Z,1011.6
2022-10-13T05:07:18.964Z,1011.6
2022-10-13T05:08:22.037Z,1011.6
2022-10-13T05:09:24.554Z,1011.6
2022-10-13T05:10:34.819Z,1011.6
2022-10-13T05:11:37.765Z,1011.6
2022-10-13T05:12:40.367Z,1011.6
2022-10-13T05:13:42.600Z,1011.6
2022-10-13T05:14:45.699Z,1011.6
2022-10-13T05:15:49.149Z,1011.6
2022-10-13T05:16:52.658Z,1011.6
2022-10-13T05:17:56.278Z,1011.6
2022-10-13T05:18:59.489Z,1011.6
2022-10-13T05:20:02.015Z,1011.6
2022-10-13T05:21:04.977Z,1011.6
2022-10-13T05:22:08.150Z,1011.6
2022-10-13T05:23:11.069Z,1011.6
2022-10-13T05:24:13.641Z,1011.5
2022-10-13T05:25:16.896Z,1011.5
2022-10-13T05:26:21.297Z,1011.5
2022-10-13T05:27:24.448Z,1011.5
2022-10-13T05:28:27.788Z,1011.5
2022-10-13T05:29:31.493Z,1011.5
2022-10-13T05:30:34.603Z,1011.5
2022-10-13T05:31:38.047Z,1011.4
2022-10-13T05:32:40.879Z,1011.4
2022-10-13T05:33:43.681Z,1011.4
2022-10-13T05:34:47.112Z,1011.4
2022-10-13T05:35:50.037Z,1011.4
2022-10-13T05:36:53.192Z,1011.4
2022-10-13T05:37:56.270Z,1011.4
2022-10-13T05:38:59.083Z,1011.5
2022-10-13T05:40:02.498Z,1011.5
2022-10-13T05:41:05.908Z,1011.5
2022-10-13T05:42:09.729Z,1011.4
2022-10-13T05:43:12.234Z,1011.5
2022-10-13T05:44:14.828Z,1011.5
2022-10-13T05:45:17.661Z,1011.5
2022-10-13T05:46:21.310Z,1011.5
2022-10-13T05:47:24.131Z,1011.5
2022-10-13T05:48:26.931Z,1011.5
2022-10-13T05:49:30.445Z,1011.5
2022-10-13T05:50:33.226Z,1011.5
2022-10-13T05:51:36.227Z,1011.5
2022-10-13T05:52:39.024Z,1011.5
2022-10-13T05:53:50.337Z,1011.5
2022-10-13T05:55:00.185Z,1011.5
2022-10-13T05:56:03.525Z,1011.5
2022-10-13T05:57:06.828Z,1011.5
2022-10-13T05:58:10.946Z,1011.5
2022-10-13T05:59:13.325Z,1011.5
2022-10-13T06:00:17.151Z,1011.5
2022-10-13T06:01:19.396Z,1011.4
2022-10-13T06:02:23.156Z,1011.4
2022-10-13T06:03:26.290Z,1011.5
2022-10-13T06:04:29.444Z,1011.5
2022-10-13T06:05:32.808Z,1011.5
2022-10-13T06:06:35.603Z,1011.5
2022-10-13T06:07:38.828Z,1011.5
2022-10-13T06:08:42.260Z,1011.5
2022-10-13T06:09:45.178Z,1011.5
2022-10-13T06:10:48.616Z,1011.5
2022-10-13T06:11:51.680Z,1011.5
2022-10-13T06:12:55.098Z,1011.4
2022-10-13T06:13:58.967Z,1011.4
2022-10-13T06:15:01.276Z,1011.4
2022-10-13T06:16:04.342Z,1011.5
2022-10-13T06:17:07.668Z,1011.5
2022-10-13T06:18:09.632Z,1011.5
2022-10-13T06:19:13.053Z,1011.5
2022-10-13T06:20:16.203Z,1011.5
2022-10-13T06:21:19.604Z,1011.5
2022-10-13T06:22:23.538Z,1011.4
2022-10-13T06:23:26.233Z,1011.4
2022-10-13T06:24:29.027Z,1011.4
2022-10-13T06:25:32.446Z,1011.4
2022-10-13T06:26:35.340Z,1011.5
2022-10-13T06:27:38.992Z,1011.4
2022-10-13T06:28:50.098Z,1011.4
2022-10-13T06:30:03.101Z,1011.4
2022-10-13T06:31:05.791Z,1011.4
2022-10-13T06:32:09.220Z,1011.4
2022-10-13T06:33:12.301Z,1011.4
2022-10-13T06:34:15.440Z,1011.4
2022-10-13T06:35:18.346Z,1011.4
2022-10-13T06:36:21.055Z,1011.3
2022-10-13T06:37:27.975Z,1011.3
2022-10-13T06:38:31.394Z,1011.2
2022-10-13T06:39:34.579Z,1011.3
2022-10-13T06:40:37.855Z,1011.2
2022-10-13T06:41:40.714Z,1011.3
2022-10-13T06:42:43.320Z,1011.2
2022-10-13T06:43:46.881Z,1011.2
2022-10-13T06:44:50.063Z,1011.2
2022-10-13T06:45:54.279Z,1011.2
2022-10-13T06:46:56.974Z,1011.2
2022-10-13T06:48:00.324Z,1011.2
2022-10-13T06:49:03.168Z,1011.2
2022-10-13T06:50:06.492Z,1011.2
2022-10-13T06:51:09.212Z,1011.2
2022-10-13T06:52:12.131Z,1011.2
2022-10-13T06:53:15.602Z,1011.2
2022-10-13T06:54:19.111Z,1011.2
2022-10-13T06:55:22.276Z,1011.2
2022-10-13T06:56:25.685Z,1011.2
2022-10-13T06:57:28.489Z,1011.2
2022-10-13T06:58:31.829Z,1011.1
2022-10-13T06:59:35.008Z,1011.1
2022-10-13T07:00:37.662Z,1011.2
2022-10-13T07:01:42.433Z,1011.2
2022-10-13T07:02:45.569Z,1011.1
2022-10-13T07:03:48.742Z,1011.1
2022-10-13T07:04:51.889Z,1011.1
2022-10-13T07:05:55.356Z,1011.2
2022-10-13T07:06:58.784Z,1011.2
2022-10-13T07:08:01.841Z,1011.2
2022-10-13T07:09:04.700Z,1011.2
2022-10-13T07:10:08.047Z,1011.1
2022-10-13T07:11:16.560Z,1011.1
2022-10-13T07:12:19.963Z,1011.2
2022-10-13T07:13:24.950Z,1011.2
2022-10-13T07:14:28.550Z,1011.1
2022-10-13T07:15:31.695Z,1011.2
2022-10-13T07:16:34.438Z,1011.2
2022-10-13T07:17:38.252Z,1011.1
2022-10-13T07:18:41.308Z,1011.1
2022-10-13T07:19:43.833Z,1011.1
2022-10-13T07:20:46.978Z,1011
2022-10-13T07:21:50.157Z,1011
2022-10-13T07:22:53.157Z,1011
2022-10-13T07:23:56.300Z,1011
2022-10-13T07:25:00.037Z,1011
2022-10-13T07:26:02.620Z,1011
2022-10-13T07:27:08.126Z,1011
2022-10-13T07:28:11.196Z,1011
2022-10-13T07:29:13.623Z,1011
2022-10-13T07:30:16.427Z,1011
2022-10-13T07:31:19.910Z,1010.9
2022-10-13T07:32:23.043Z,1011
2022-10-13T07:33:27.160Z,1011
2022-10-13T07:34:29.950Z,1011
2022-10-13T07:35:33.822Z,1011
2022-10-13T07:36:36.752Z,1011
2022-10-13T07:37:39.482Z,1011
2022-10-13T07:38:42.137Z,1011.1
2022-10-13T07:39:45.496Z,1011.1
2022-10-13T07:40:48.847Z,1011.1
2022-10-13T07:41:51.688Z,1011
2022-10-13T07:42:55.344Z,1011
2022-10-13T07:43:58.591Z,1011.1
2022-10-13T07:45:01.778Z,1011
2022-10-13T07:46:04.650Z,1011.1
2022-10-13T07:47:07.950Z,1011
2022-10-13T07:48:11.044Z,1011.1
2022-10-13T07:49:16.682Z,1011.1
2022-10-13T07:50:19.542Z,1011.1
2022-10-13T07:51:23.127Z,1011
2022-10-13T07:52:26.474Z,1011
2022-10-13T07:53:29.920Z,1011
2022-10-13T07:54:33.006Z,1011
2022-10-13T07:55:35.979Z,1010.9
2022-10-13T07:56:38.857Z,1010.9
2022-10-13T07:57:42.023Z,1010.8
2022-10-13T07:58:44.825Z,1010.8
2022-10-13T07:59:48.539Z,1010.8
2022-10-13T08:00:51.488Z,1010.8
2022-10-13T08:01:54.192Z,1010.8
2022-10-13T08:02:57.749Z,1010.8
2022-10-13T08:04:01.920Z,1010.8
2022-10-13T08:05:06.110Z,1010.7
2022-10-13T08:06:08.985Z,1010.8
2022-10-13T08:07:11.766Z,1010.8
2022-10-13T08:08:15.586Z,1010.9
2022-10-13T08:09:18.298Z,1010.9
2022-10-13T08:10:21.469Z,1010.9
2022-10-13T08:11:24.359Z,1010.9
2022-10-13T08:12:27.803Z,1010.9
2022-10-13T08:13:30.600Z,1010.9
2022-10-13T08:14:33.644Z,1010.9
2022-10-13T08:15:37.537Z,1010.9
2022-10-13T08:16:40.140Z,1010.9
2022-10-13T08:17:43.307Z,1010.9
2022-10-13T08:18:46.703Z,1010.9
2022-10-13T08:19:49.619Z,1010.9
2022-10-13T08:21:28.364Z,1010.9
2022-10-13T08:23:02.930Z,1010.9
2022-10-13T08:24:06.081Z,1010.9
2022-10-13T08:25:09.409Z,1010.9
2022-10-13T08:26:12.270Z,1010.9
2022-10-13T08:27:15.058Z,1010.9
2022-10-13T08:28:18.870Z,1010.8
2022-10-13T08:29:24.828Z,1010.8
2022-10-13T08:30:27.936Z,1010.8
2022-10-13T08:31:32.294Z,1010.8
2022-10-13T08:32:36.631Z,1010.8
2022-10-13T08:33:38.515Z,1010.8
2022-10-13T08:34:41.122Z,1010.8
2022-10-13T08:35:44.659Z,1010.8
2022-10-13T08:36:48.939Z,1010.8
2022-10-13T08:37:52.410Z,1010.8
2022-10-13T08:38:56.184Z,1010.8
2022-10-13T08:39:59.886Z,1010.8
2022-10-13T08:41:02.947Z,1010.9
2022-10-13T08:42:05.440Z,1010.8
2022-10-13T08:43:08.583Z,1010.8
2022-10-13T08:46:45.469Z,1010.7
2022-10-13T08:47:48.552Z,1010.7
2022-10-13T08:48:51.723Z,1010.7
2022-10-13T08:50:01.100Z,1010.8
2022-10-13T08:51:04.294Z,1010.7
2022-10-13T08:52:08.678Z,1010.7
2022-10-13T08:53:11.276Z,1010.7
2022-10-13T08:54:13.521Z,1010.7
2022-10-13T08:55:16.579Z,1010.7
2022-10-13T08:56:20.316Z,1010.6
2022-10-13T08:57:24.267Z,1010.6
2022-10-13T08:58:27.118Z,1010.6
2022-10-13T08:59:29.717Z,1010.6
2022-10-13T09:00:33.060Z,1010.6
2022-10-13T09:01:35.959Z,1010.6
2022-10-13T09:02:39.794Z,1010.6
2022-10-13T09:03:43.170Z,1010.6
2022-10-13T09:04:46.066Z,1010.6
2022-10-13T09:05:49.474Z,1010.6
2022-10-13T09:06:52.505Z,1010.6
2022-10-13T09:07:57.010Z,1010.5
2022-10-13T09:09:00.657Z,1010.5
2022-10-13T09:10:04.118Z,1010.5
2022-10-13T09:11:07.645Z,1010.5
2022-10-13T09:12:10.524Z,1010.5
2022-10-13T09:13:13.122Z,1010.5
2022-10-13T09:14:15.931Z,1010.5
2022-10-13T09:15:19.307Z,1010.5
2022-10-13T09:16:22.838Z,1010.5
2022-10-13T09:17:26.273Z,1010.5
2022-10-13T09:18:29.707Z,1010.4
2022-10-13T09:19:32.701Z,1010.4
2022-10-13T09:20:36.067Z,1010.4
2022-10-13T09:21:39.574Z,1010.4
2022-10-13T09:22:42.313Z,1010.4
2022-10-13T09:23:46.441Z,1010.4
2022-10-13T09:24:49.286Z,1010.4
2022-10-13T09:25:52.723Z,1010.5
2022-10-13T09:26:55.505Z,1010.4
2022-10-13T09:27:58.112Z,1010.4
2022-10-13T09:29:01.033Z,1010.3
2022-10-13T09:30:03.765Z,1010.4
2022-10-13T09:31:13.228Z,1010.4
2022-10-13T09:32:18.629Z,1010.3
2022-10-13T09:33:23.432Z,1010.4
2022-10-13T09:34:26.572Z,1010.4
2022-10-13T09:35:29.995Z,1010.4
2022-10-13T09:36:33.649Z,1010.4
2022-10-13T09:37:37.102Z,1010.4
2022-10-13T09:38:40.071Z,1010.4
2022-10-13T09:39:44.580Z,1010.4
2022-10-13T09:40:48.332Z,1010.3
2022-10-13T09:41:51.701Z,1010.3
2022-10-13T09:42:55.271Z,1010.4
2022-10-13T09:43:59.079Z,1010.3
2022-10-13T09:45:01.232Z,1010.3
2022-10-13T09:46:04.973Z,1010.3
2022-10-13T09:47:08.235Z,1010.3
2022-10-13T09:48:11.750Z,1010.3
2022-10-13T09:49:15.095Z,1010.2
2022-10-13T09:50:18.201Z,1010.2
2022-10-13T09:51:20.932Z,1010.2
2022-10-13T09:52:24.755Z,1010.2
2022-10-13T09:53:27.919Z,1010.1
2022-10-13T09:54:31.026Z,1010.1
2022-10-13T09:55:34.993Z,1010.1
2022-10-13T09:56:37.265Z,1010.1
2022-10-13T09:57:40.514Z,1010.1
2022-10-13T09:59:47.943Z,1010
2022-10-13T10:00:51.505Z,1010
2022-10-13T10:01:54.662Z,1010
2022-10-13T10:02:57.932Z,1009.9
2022-10-13T10:04:01.543Z,1009.9
2022-10-13T10:05:04.623Z,1009.9
2022-10-13T10:06:08.013Z,1009.9
2022-10-13T10:07:10.611Z,1009.9
2022-10-13T10:08:12.565Z,1010
2022-10-13T10:09:15.723Z,1010
2022-10-13T10:10:18.344Z,1010
2022-10-13T10:11:22.594Z,1010
2022-10-13T10:12:28.182Z,1010
2022-10-13T10:13:31.879Z,1010
2022-10-13T10:14:35.779Z,1010
2022-10-13T10:15:37.999Z,1010
2022-10-13T10:16:41.140Z,1010
2022-10-13T10:17:43.121Z,1009.9
2022-10-13T10:18:45.678Z,1009.9
2022-10-13T10:19:49.307Z,1010
2022-10-13T10:20:53.080Z,1010
2022-10-13T10:21:55.652Z,1009.9
2022-10-13T10:22:58.452Z,1009.9
2022-10-13T10:24:01.435Z,1009.9
2022-10-13T10:25:04.632Z,1010
2022-10-13T10:26:07.097Z,1010
2022-10-13T10:27:11.259Z,1010
2022-10-13T10:28:15.105Z,1010
2022-10-13T10:29:18.594Z,1010
2022-10-13T10:30:21.515Z,1010
2022-10-13T10:31:24.379Z,1010
2022-10-13T10:32:28.099Z,1010
2022-10-13T10:33:30.935Z,1010
2022-10-13T10:34:33.737Z,1010
2022-10-13T10:35:36.282Z,1010
2022-10-13T10:36:39.746Z,1010
2022-10-13T10:37:43.755Z,1010
2022-10-13T10:38:46.565Z,1010
2022-10-13T10:39:49.552Z,1010
2022-10-13T10:40:52.654Z,1010
2022-10-13T10:41:56.792Z,1009.9
2022-10-13T10:43:00.935Z,1010
2022-10-13T10:44:03.652Z,1010
2022-10-13T10:45:07.110Z,1010
2022-10-13T10:46:10.543Z,1009.9
2022-10-13T10:47:13.333Z,1009.9
2022-10-13T10:48:19.053Z,1009.8
2022-10-13T10:49:22.166Z,1009.8
2022-10-13T10:50:25.885Z,1009.8
2022-10-13T10:51:29.001Z,1009.7
2022-10-13T10:52:32.544Z,1009.7
2022-10-13T10:53:35.549Z,1009.7
2022-10-13T10:54:38.540Z,1009.7
2022-10-13T10:55:48.179Z,1009.6
2022-10-13T10:56:51.574Z,1009.7
2022-10-13T10:57:54.685Z,1009.7
2022-10-13T10:58:58.804Z,1009.7
2022-10-13T11:00:02.250Z,1009.6
2022-10-13T11:01:05.684Z,1009.6
2022-10-13T11:02:08.410Z,1009.6
2022-10-13T11:03:11.225Z,1009.7
2022-10-13T11:04:14.891Z,1009.6
2022-10-13T11:05:18.074Z,1009.6
2022-10-13T11:06:20.597Z,1009.6
2022-10-13T11:07:23.678Z,1009.6
2022-10-13T11:08:26.471Z,1009.6
2022-10-13T11:09:29.556Z,1009.5
2022-10-13T11:10:32.721Z,1009.5
2022-10-13T11:11:38.410Z,1009.5
2022-10-13T11:12:41.780Z,1009.5
2022-10-13T11:13:44.688Z,1009.5
2022-10-13T11:14:49.082Z,1009.5
2022-10-13T11:15:51.894Z,1009.5
2022-10-13T11:16:54.672Z,1009.4
2022-10-13T11:17:57.388Z,1009.5
2022-10-13T11:19:00.447Z,1009.5
2022-10-13T11:20:03.169Z,1009.4
2022-10-13T11:21:06.628Z,1009.4
2022-10-13T11:22:09.697Z,1009.4
2022-10-13T11:23:11.865Z,1009.4
2022-10-13T11:24:15.085Z,1009.4
2022-10-13T11:25:18.235Z,1009.4
2022-10-13T11:26:21.380Z,1009.4
2022-10-13T11:27:24.174Z,1009.5
2022-10-13T11:28:28.104Z,1009.5
2022-10-13T11:29:31.081Z,1009.5
2022-10-13T11:30:35.190Z,1009.5
2022-10-13T11:31:38.271Z,1009.5
2022-10-13T11:32:41.160Z,1009.4
2022-10-13T11:33:43.783Z,1009.4
2022-10-13T11:34:46.856Z,1009.5
2022-10-13T11:35:49.383Z,1009.5
2022-10-13T11:36:52.446Z,1009.4
2022-10-13T11:38:08.073Z,1009.5
2022-10-13T11:39:21.070Z,1009.4
2022-10-13T11:40:24.160Z,1009.4
2022-10-13T11:41:26.984Z,1009.4
2022-10-13T11:42:30.320Z,1009.4
2022-10-13T11:43:34.130Z,1009.4
2022-10-13T11:44:36.678Z,1009.3
2022-10-13T11:45:40.949Z,1009.3
2022-10-13T11:46:44.723Z,1009.3
2022-10-13T11:47:47.877Z,1009.3
2022-10-13T11:48:50.880Z,1009.2
2022-10-13T11:49:53.970Z,1009.2
2022-10-13T11:50:57.062Z,1009.4
2022-10-13T11:51:59.942Z,1009.2
2022-10-13T11:53:02.730Z,1009.2
2022-10-13T11:54:06.084Z,1009.2
2022-10-13T11:55:09.273Z,1009.2
2022-10-13T11:56:13.238Z,1009.2
2022-10-13T11:57:16.309Z,1009.1
2022-10-13T11:58:19.215Z,1009.1
2022-10-13T11:59:22.328Z,1009.1
2022-10-13T12:00:25.419Z,1009.1
2022-10-13T12:01:29.521Z,1009
2022-10-13T12:02:32.335Z,1009
2022-10-13T12:03:35.989Z,1008.9
2022-10-13T12:04:46.829Z,1009
2022-10-13T12:05:50.515Z,1009
2022-10-13T12:06:54.056Z,1008.9
2022-10-13T12:07:56.576Z,1008.9
2022-10-13T12:08:59.121Z,1008.9
2022-10-13T12:10:02.476Z,1008.9
2022-10-13T12:11:05.701Z,1008.9
2022-10-13T12:12:08.153Z,1008.9
2022-10-13T12:13:10.422Z,1008.9
2022-10-13T12:14:13.689Z,1008.9
2022-10-13T12:15:17.155Z,1008.9
2022-10-13T12:16:20.409Z,1008.9
2022-10-13T12:17:25.185Z,1008.9
2022-10-13T12:18:30.400Z,1008.9
2022-10-13T12:19:33.478Z,1008.8
2022-10-13T12:20:36.281Z,1008.9
2022-10-13T12:21:38.728Z,1008.8
2022-10-13T12:22:42.201Z,1008.8
2022-10-13T12:23:45.322Z,1008.8
2022-10-13T12:24:48.689Z,1008.8
2022-10-13T12:25:51.866Z,1008.7
2022-10-13T12:26:54.852Z,1008.8
2022-10-13T12:27:58.311Z,1008.8
2022-10-13T12:29:01.554Z,1008.7
2022-10-13T12:30:04.922Z,1008.7
2022-10-13T12:31:08.526Z,1008.8
2022-10-13T12:32:11.272Z,1008.7
2022-10-13T12:33:15.538Z,1008.7
2022-10-13T12:34:18.519Z,1008.7
2022-10-13T12:35:21.962Z,1008.7
2022-10-13T12:36:24.694Z,1008.7
2022-10-13T12:37:27.845Z,1008.7
2022-10-13T12:38:30.924Z,1008.7
2022-10-13T12:39:33.791Z,1008.7
2022-10-13T12:40:36.578Z,1008.7
2022-10-13T12:41:40.374Z,1008.7
2022-10-13T12:42:43.819Z,1008.7
2022-10-13T12:43:46.412Z,1008.7
2022-10-13T12:44:49.398Z,1008.7
2022-10-13T12:45:52.293Z,1008.7
2022-10-13T12:46:55.518Z,1008.7
2022-10-13T12:47:58.626Z,1008.7
2022-10-13T12:49:02.659Z,1008.7
2022-10-13T12:50:06.033Z,1008.6
2022-10-13T12:51:09.476Z,1008.6
2022-10-13T12:52:12.839Z,1008.6
2022-10-13T12:53:16.027Z,1008.7
2022-10-13T12:54:19.571Z,1008.6
2022-10-13T12:55:22.642Z,1008.6
2022-10-13T12:56:25.995Z,1008.6
2022-10-13T12:57:29.348Z,1008.6
2022-10-13T12:58:32.221Z,1008.6
2022-10-13T12:59:35.017Z,1008.6
2022-10-13T13:00:38.461Z,1008.6
2022-10-13T13:01:42.489Z,1008.6
2022-10-13T13:02:45.407Z,1008.6
2022-10-13T13:03:48.593Z,1008.6
2022-10-13T13:04:52.855Z,1008.6
2022-10-13T13:06:01.046Z,1008.6
2022-10-13T13:07:04.389Z,1008.6
2022-10-13T13:08:07.477Z,1008.5
2022-10-13T13:09:10.908Z,1008.5
2022-10-13T13:10:14.360Z,1008.5
2022-10-13T13:11:17.539Z,1008.5
2022-10-13T13:12:21.315Z,1008.5
2022-10-13T13:13:25.848Z,1008.5
2022-10-13T13:14:29.306Z,1008.5
2022-10-13T13:15:32.647Z,1008.5
2022-10-13T13:16:35.732Z,1008.5
2022-10-13T13:17:59.158Z,1008.4
2022-10-13T13:19:02.806Z,1008.4
2022-10-13T13:20:06.958Z,1008.4
2022-10-13T13:21:10.132Z,1008.4
2022-10-13T13:22:13.221Z,1008.5
2022-10-13T13:23:15.730Z,1008.4